sensor_id;sensor_type;location;lat;lon;timestamp;temperature;humidity
36416;DHT22;22447;44.530;18.620;2024-02-21T00:00:56;6.80;99.90
36416;DHT22;22447;44.530;18.620;2024-02-21T00:03:22;6.80;99.90
36416;DHT22;22447;44.530;18.620;2024-02-21T00:05:48;6.90;99.90
36416;DHT22;22447;44.530;18.620;2024-02-21T00:08:13;6.90;99.90
36416;DHT22;22447;44.530;18.620;2024-02-21T00:10:39;6.90;99.90
36416;DHT22;22447;44.530;18.620;2024-02-21T00:13:05;6.90;99.90
36416;DHT22;22447;44.530;18.620;2024-02-21T00:15:31;7.10;99.90
36416;DHT22;22447;44.530;18.620;2024-02-21T00:17:57;7.20;99.90
36416;DHT22;22447;44.530;18.620;2024-02-21T00:20:22;7.20;99.90
36416;DHT22;22447;44.530;18.620;2024-02-21T00:22:48;7.10;99.90
36416;DHT22;22447;44.530;18.620;2024-02-21T00:25:14;7.10;99.90
36416;DHT22;22447;44.530;18.620;2024-02-21T00:27:40;7.10;99.90
36416;DHT22;22447;44.530;18.620;2024-02-21T00:30:06;7.10;99.90
36416;DHT22;22447;44.530;18.620;2024-02-21T00:32:32;7.10;99.90
36416;DHT22;22447;44.530;18.620;2024-02-21T00:35:00;7.00;99.90
36416;DHT22;22447;44.530;18.620;2024-02-21T00:37:27;7.00;99.90
36416;DHT22;22447;44.530;18.620;2024-02-21T00:39:54;6.90;99.90
36416;DHT22;22447;44.530;18.620;2024-02-21T00:42:20;6.90;99.90
36416;DHT22;22447;44.530;18.620;2024-02-21T00:44:46;6.90;99.90
36416;DHT22;22447;44.530;18.620;2024-02-21T00:47:12;6.90;99.90
36416;DHT22;22447;44.530;18.620;2024-02-21T00:49:38;7.00;99.90
36416;DHT22;22447;44.530;18.620;2024-02-21T00:52:04;7.00;99.90
36416;DHT22;22447;44.530;18.620;2024-02-21T00:54:30;7.00;99.90
36416;DHT22;22447;44.530;18.620;2024-02-21T00:56:56;7.00;99.90
36416;DHT22;22447;44.530;18.620;2024-02-21T00:59:22;7.00;99.90
36416;DHT22;22447;44.530;18.620;2024-02-21T01:01:47;7.00;99.90
36416;DHT22;22447;44.530;18.620;2024-02-21T01:04:13;7.10;99.90
36416;DHT22;22447;44.530;18.620;2024-02-21T01:06:39;7.10;99.90
36416;DHT22;22447;44.530;18.620;2024-02-21T01:09:08;7.10;99.90
36416;DHT22;22447;44.530;18.620;2024-02-21T01:11:34;7.10;99.90
36416;DHT22;22447;44.530;18.620;2024-02-21T01:14:00;7.00;99.90
36416;DHT22;22447;44.530;18.620;2024-02-21T01:16:26;7.00;99.90
36416;DHT22;22447;44.530;18.620;2024-02-21T01:18:52;7.00;99.90
36416;DHT22;22447;44.530;18.620;2024-02-21T01:21:18;6.90;99.90
36416;DHT22;22447;44.530;18.620;2024-02-21T01:23:44;6.80;99.90
36416;DHT22;22447;44.530;18.620;2024-02-21T01:26:09;6.70;99.90
36416;DHT22;22447;44.530;18.620;2024-02-21T01:28:38;6.80;99.90
36416;DHT22;22447;44.530;18.620;2024-02-21T01:31:04;6.80;99.90
36416;DHT22;22447;44.530;18.620;2024-02-21T01:33:31;6.80;99.90
36416;DHT22;22447;44.530;18.620;2024-02-21T01:36:03;6.80;99.90
36416;DHT22;22447;44.530;18.620;2024-02-21T01:38:29;6.80;99.90
36416;DHT22;22447;44.530;18.620;2024-02-21T01:40:55;6.80;99.90
36416;DHT22;22447;44.530;18.620;2024-02-21T01:43:22;6.90;99.90
36416;DHT22;22447;44.530;18.620;2024-02-21T01:45:52;6.80;99.90
36416;DHT22;22447;44.530;18.620;2024-02-21T01:48:19;6.80;99.90
36416;DHT22;22447;44.530;18.620;2024-02-21T01:50:46;6.70;99.90
36416;DHT22;22447;44.530;18.620;2024-02-21T01:53:14;6.70;99.90
36416;DHT22;22447;44.530;18.620;2024-02-21T01:55:47;6.60;99.90
36416;DHT22;22447;44.530;18.620;2024-02-21T01:58:17;6.60;99.90
36416;DHT22;22447;44.530;18.620;2024-02-21T02:00:44;6.50;99.90
36416;DHT22;22447;44.530;18.620;2024-02-21T02:03:11;6.60;99.90
36416;DHT22;22447;44.530;18.620;2024-02-21T02:05:47;6.60;99.90
36416;DHT22;22447;44.530;18.620;2024-02-21T02:08:17;6.70;99.90
36416;DHT22;22447;44.530;18.620;2024-02-21T02:10:44;6.60;99.90
36416;DHT22;22447;44.530;18.620;2024-02-21T02:13:10;6.60;99.90
36416;DHT22;22447;44.530;18.620;2024-02-21T02:18:10;6.60;99.90
36416;DHT22;22447;44.530;18.620;2024-02-21T02:20:36;6.60;99.90
36416;DHT22;22447;44.530;18.620;2024-02-21T02:25:53;6.60;99.90
36416;DHT22;22447;44.530;18.620;2024-02-21T02:28:28;6.70;99.90
36416;DHT22;22447;44.530;18.620;2024-02-21T02:30:54;6.60;99.90
36416;DHT22;22447;44.530;18.620;2024-02-21T02:33:20;6.70;99.90
36416;DHT22;22447;44.530;18.620;2024-02-21T02:35:46;6.80;99.90
36416;DHT22;22447;44.530;18.620;2024-02-21T02:38:12;6.80;99.90
36416;DHT22;22447;44.530;18.620;2024-02-21T02:40:39;6.80;99.90
36416;DHT22;22447;44.530;18.620;2024-02-21T02:43:06;6.70;99.90
36416;DHT22;22447;44.530;18.620;2024-02-21T02:45:32;6.60;99.90
36416;DHT22;22447;44.530;18.620;2024-02-21T02:47:59;6.70;99.90
36416;DHT22;22447;44.530;18.620;2024-02-21T02:50:26;6.70;99.90
36416;DHT22;22447;44.530;18.620;2024-02-21T02:52:53;6.70;99.90
36416;DHT22;22447;44.530;18.620;2024-02-21T02:55:19;6.70;99.90
36416;DHT22;22447;44.530;18.620;2024-02-21T02:57:45;6.70;99.90
36416;DHT22;22447;44.530;18.620;2024-02-21T03:00:11;6.70;99.90
36416;DHT22;22447;44.530;18.620;2024-02-21T03:02:39;6.70;99.90
36416;DHT22;22447;44.530;18.620;2024-02-21T03:05:12;6.60;99.90
36416;DHT22;22447;44.530;18.620;2024-02-21T03:07:39;6.70;99.90
36416;DHT22;22447;44.530;18.620;2024-02-21T03:10:05;6.60;99.90
36416;DHT22;22447;44.530;18.620;2024-02-21T03:12:31;6.60;99.90
36416;DHT22;22447;44.530;18.620;2024-02-21T03:14:57;6.60;99.90
36416;DHT22;22447;44.530;18.620;2024-02-21T03:17:22;6.60;99.90
36416;DHT22;22447;44.530;18.620;2024-02-21T03:19:48;6.60;99.90
36416;DHT22;22447;44.530;18.620;2024-02-21T03:22:15;6.60;99.90
36416;DHT22;22447;44.530;18.620;2024-02-21T03:24:42;6.60;99.90
36416;DHT22;22447;44.530;18.620;2024-02-21T03:27:09;6.60;99.90
36416;DHT22;22447;44.530;18.620;2024-02-21T03:29:34;6.70;99.90
36416;DHT22;22447;44.530;18.620;2024-02-21T03:32:00;6.60;99.90
36416;DHT22;22447;44.530;18.620;2024-02-21T03:34:26;6.60;99.90
36416;DHT22;22447;44.530;18.620;2024-02-21T03:36:52;6.60;99.90
36416;DHT22;22447;44.530;18.620;2024-02-21T03:39:17;6.60;99.90
36416;DHT22;22447;44.530;18.620;2024-02-21T03:41:43;6.60;99.90
36416;DHT22;22447;44.530;18.620;2024-02-21T03:44:09;6.60;99.90
36416;DHT22;22447;44.530;18.620;2024-02-21T03:46:35;6.60;99.90
36416;DHT22;22447;44.530;18.620;2024-02-21T03:49:01;6.60;99.90
36416;DHT22;22447;44.530;18.620;2024-02-21T03:51:27;6.60;99.90
36416;DHT22;22447;44.530;18.620;2024-02-21T03:53:52;6.60;99.90
36416;DHT22;22447;44.530;18.620;2024-02-21T03:56:18;6.70;99.90
36416;DHT22;22447;44.530;18.620;2024-02-21T03:58:44;6.70;99.90
36416;DHT22;22447;44.530;18.620;2024-02-21T04:01:10;6.70;99.90
36416;DHT22;22447;44.530;18.620;2024-02-21T04:03:36;6.70;99.90
36416;DHT22;22447;44.530;18.620;2024-02-21T04:06:01;6.70;99.90
36416;DHT22;22447;44.530;18.620;2024-02-21T04:08:27;6.70;99.90
36416;DHT22;22447;44.530;18.620;2024-02-21T04:10:53;6.70;99.90
36416;DHT22;22447;44.530;18.620;2024-02-21T04:13:19;6.60;99.90
36416;DHT22;22447;44.530;18.620;2024-02-21T04:15:45;6.60;99.90
36416;DHT22;22447;44.530;18.620;2024-02-21T04:18:11;6.60;99.90
36416;DHT22;22447;44.530;18.620;2024-02-21T04:20:36;6.70;99.90
36416;DHT22;22447;44.530;18.620;2024-02-21T04:23:02;6.60;99.90
36416;DHT22;22447;44.530;18.620;2024-02-21T04:25:28;6.50;99.90
36416;DHT22;22447;44.530;18.620;2024-02-21T04:27:54;6.50;99.90
36416;DHT22;22447;44.530;18.620;2024-02-21T04:30:20;6.50;99.90
36416;DHT22;22447;44.530;18.620;2024-02-21T04:32:45;6.50;99.90
36416;DHT22;22447;44.530;18.620;2024-02-21T04:35:11;6.50;99.90
36416;DHT22;22447;44.530;18.620;2024-02-21T04:37:37;6.40;99.90
36416;DHT22;22447;44.530;18.620;2024-02-21T04:40:03;6.40;99.90
36416;DHT22;22447;44.530;18.620;2024-02-21T04:42:29;6.40;99.90
36416;DHT22;22447;44.530;18.620;2024-02-21T04:44:55;6.30;99.90
36416;DHT22;22447;44.530;18.620;2024-02-21T04:47:20;6.30;99.90
36416;DHT22;22447;44.530;18.620;2024-02-21T04:49:46;6.30;99.90
36416;DHT22;22447;44.530;18.620;2024-02-21T04:52:12;6.30;99.90
36416;DHT22;22447;44.530;18.620;2024-02-21T04:54:38;6.30;99.90
36416;DHT22;22447;44.530;18.620;2024-02-21T04:57:04;6.30;99.90
36416;DHT22;22447;44.530;18.620;2024-02-21T04:59:30;6.30;99.90
36416;DHT22;22447;44.530;18.620;2024-02-21T05:01:56;6.30;99.90
36416;DHT22;22447;44.530;18.620;2024-02-21T05:04:22;6.20;99.90
36416;DHT22;22447;44.530;18.620;2024-02-21T05:06:48;6.20;99.90
36416;DHT22;22447;44.530;18.620;2024-02-21T05:09:14;6.20;99.90
36416;DHT22;22447;44.530;18.620;2024-02-21T05:11:39;6.20;99.90
36416;DHT22;22447;44.530;18.620;2024-02-21T05:14:05;6.20;99.90
36416;DHT22;22447;44.530;18.620;2024-02-21T05:16:32;6.20;99.90
36416;DHT22;22447;44.530;18.620;2024-02-21T05:18:58;6.20;99.90
36416;DHT22;22447;44.530;18.620;2024-02-21T05:21:24;6.30;99.90
36416;DHT22;22447;44.530;18.620;2024-02-21T05:23:51;6.40;99.90
36416;DHT22;22447;44.530;18.620;2024-02-21T05:26:24;6.40;99.90
36416;DHT22;22447;44.530;18.620;2024-02-21T05:28:50;6.40;99.90
36416;DHT22;22447;44.530;18.620;2024-02-21T05:31:18;6.40;99.90
36416;DHT22;22447;44.530;18.620;2024-02-21T05:33:44;6.40;99.90
36416;DHT22;22447;44.530;18.620;2024-02-21T05:36:11;6.40;99.90
36416;DHT22;22447;44.530;18.620;2024-02-21T05:38:37;6.40;99.90
36416;DHT22;22447;44.530;18.620;2024-02-21T05:41:03;6.40;99.90
36416;DHT22;22447;44.530;18.620;2024-02-21T05:43:29;6.40;99.90
36416;DHT22;22447;44.530;18.620;2024-02-21T05:45:55;6.50;99.90
36416;DHT22;22447;44.530;18.620;2024-02-21T05:48:24;6.50;99.90
36416;DHT22;22447;44.530;18.620;2024-02-21T05:50:50;6.40;99.90
36416;DHT22;22447;44.530;18.620;2024-02-21T05:53:16;6.50;99.90
36416;DHT22;22447;44.530;18.620;2024-02-21T05:55:42;6.50;99.90
36416;DHT22;22447;44.530;18.620;2024-02-21T05:58:08;6.40;99.90
36416;DHT22;22447;44.530;18.620;2024-02-21T06:00:37;6.30;99.90
36416;DHT22;22447;44.530;18.620;2024-02-21T06:03:03;6.40;99.90
36416;DHT22;22447;44.530;18.620;2024-02-21T06:05:29;6.40;99.90
36416;DHT22;22447;44.530;18.620;2024-02-21T06:07:56;6.40;99.90
36416;DHT22;22447;44.530;18.620;2024-02-21T06:10:22;6.50;99.90
36416;DHT22;22447;44.530;18.620;2024-02-21T06:12:48;6.50;99.90
36416;DHT22;22447;44.530;18.620;2024-02-21T06:15:14;6.50;99.90
36416;DHT22;22447;44.530;18.620;2024-02-21T06:17:39;6.50;99.90
36416;DHT22;22447;44.530;18.620;2024-02-21T06:20:06;6.50;99.90
36416;DHT22;22447;44.530;18.620;2024-02-21T06:22:32;6.40;99.90
36416;DHT22;22447;44.530;18.620;2024-02-21T06:24:58;6.50;99.90
36416;DHT22;22447;44.530;18.620;2024-02-21T06:27:24;6.50;99.90
36416;DHT22;22447;44.530;18.620;2024-02-21T06:29:50;6.40;99.90
36416;DHT22;22447;44.530;18.620;2024-02-21T06:32:16;6.50;99.90
36416;DHT22;22447;44.530;18.620;2024-02-21T06:34:41;6.60;99.90
36416;DHT22;22447;44.530;18.620;2024-02-21T06:37:07;6.50;99.90
36416;DHT22;22447;44.530;18.620;2024-02-21T06:39:34;6.50;99.90
36416;DHT22;22447;44.530;18.620;2024-02-21T06:42:02;6.60;99.90
36416;DHT22;22447;44.530;18.620;2024-02-21T06:44:28;6.60;99.90
36416;DHT22;22447;44.530;18.620;2024-02-21T06:46:54;6.70;99.90
36416;DHT22;22447;44.530;18.620;2024-02-21T06:49:20;6.70;99.90
36416;DHT22;22447;44.530;18.620;2024-02-21T06:51:46;6.60;99.90
36416;DHT22;22447;44.530;18.620;2024-02-21T06:54:11;6.70;99.90
36416;DHT22;22447;44.530;18.620;2024-02-21T06:56:39;6.80;99.90
36416;DHT22;22447;44.530;18.620;2024-02-21T06:59:05;6.70;99.90
36416;DHT22;22447;44.530;18.620;2024-02-21T07:01:31;6.80;99.90
36416;DHT22;22447;44.530;18.620;2024-02-21T07:03:57;6.80;99.90
36416;DHT22;22447;44.530;18.620;2024-02-21T07:06:23;6.80;99.90
36416;DHT22;22447;44.530;18.620;2024-02-21T07:08:49;6.90;99.90
36416;DHT22;22447;44.530;18.620;2024-02-21T07:11:15;7.00;99.90
36416;DHT22;22447;44.530;18.620;2024-02-21T07:13:41;6.90;99.90
36416;DHT22;22447;44.530;18.620;2024-02-21T07:16:07;6.90;99.90
36416;DHT22;22447;44.530;18.620;2024-02-21T07:18:33;6.90;99.90
36416;DHT22;22447;44.530;18.620;2024-02-21T07:20:59;6.90;99.90
36416;DHT22;22447;44.530;18.620;2024-02-21T07:23:25;6.90;99.90
36416;DHT22;22447;44.530;18.620;2024-02-21T07:25:51;6.90;99.90
36416;DHT22;22447;44.530;18.620;2024-02-21T07:28:17;7.10;99.90
36416;DHT22;22447;44.530;18.620;2024-02-21T07:30:45;7.00;99.90
36416;DHT22;22447;44.530;18.620;2024-02-21T07:33:11;7.00;99.90
36416;DHT22;22447;44.530;18.620;2024-02-21T07:35:37;7.00;99.90
36416;DHT22;22447;44.530;18.620;2024-02-21T07:38:06;7.10;99.90
36416;DHT22;22447;44.530;18.620;2024-02-21T07:40:32;7.10;99.90
36416;DHT22;22447;44.530;18.620;2024-02-21T07:42:58;7.00;99.90
36416;DHT22;22447;44.530;18.620;2024-02-21T07:45:24;7.10;99.90
36416;DHT22;22447;44.530;18.620;2024-02-21T07:47:50;7.30;99.90
36416;DHT22;22447;44.530;18.620;2024-02-21T07:50:16;7.30;99.90
36416;DHT22;22447;44.530;18.620;2024-02-21T07:52:42;7.30;99.90
36416;DHT22;22447;44.530;18.620;2024-02-21T07:55:08;7.30;99.90
36416;DHT22;22447;44.530;18.620;2024-02-21T07:57:36;7.40;99.90
36416;DHT22;22447;44.530;18.620;2024-02-21T08:00:02;7.50;99.90
36416;DHT22;22447;44.530;18.620;2024-02-21T08:02:38;7.60;99.90
36416;DHT22;22447;44.530;18.620;2024-02-21T08:05:04;7.60;99.90
36416;DHT22;22447;44.530;18.620;2024-02-21T08:07:30;7.70;99.90
36416;DHT22;22447;44.530;18.620;2024-02-21T08:09:56;7.70;99.90
36416;DHT22;22447;44.530;18.620;2024-02-21T08:12:22;7.90;99.90
36416;DHT22;22447;44.530;18.620;2024-02-21T08:14:48;8.00;99.90
36416;DHT22;22447;44.530;18.620;2024-02-21T08:17:14;8.00;99.90
36416;DHT22;22447;44.530;18.620;2024-02-21T08:19:39;8.10;99.90
36416;DHT22;22447;44.530;18.620;2024-02-21T08:22:05;8.60;99.90
36416;DHT22;22447;44.530;18.620;2024-02-21T08:24:32;9.10;99.90
36416;DHT22;22447;44.530;18.620;2024-02-21T08:26:58;9.60;99.90
36416;DHT22;22447;44.530;18.620;2024-02-21T08:29:24;9.60;99.90
36416;DHT22;22447;44.530;18.620;2024-02-21T08:31:49;9.50;99.90
36416;DHT22;22447;44.530;18.620;2024-02-21T08:34:16;9.70;99.90
36416;DHT22;22447;44.530;18.620;2024-02-21T08:36:43;9.80;99.90
36416;DHT22;22447;44.530;18.620;2024-02-21T08:39:08;9.70;99.90
36416;DHT22;22447;44.530;18.620;2024-02-21T08:41:35;9.70;99.90
36416;DHT22;22447;44.530;18.620;2024-02-21T08:44:01;9.70;99.90
36416;DHT22;22447;44.530;18.620;2024-02-21T08:46:27;9.80;99.90
36416;DHT22;22447;44.530;18.620;2024-02-21T08:48:54;9.80;99.90
36416;DHT22;22447;44.530;18.620;2024-02-21T08:51:20;9.80;99.90
36416;DHT22;22447;44.530;18.620;2024-02-21T08:53:47;9.80;99.90
36416;DHT22;22447;44.530;18.620;2024-02-21T08:56:13;9.90;99.90
36416;DHT22;22447;44.530;18.620;2024-02-21T08:58:40;10.50;99.90
36416;DHT22;22447;44.530;18.620;2024-02-21T09:01:07;10.90;99.90
36416;DHT22;22447;44.530;18.620;2024-02-21T09:03:38;11.00;99.90
36416;DHT22;22447;44.530;18.620;2024-02-21T09:06:05;11.10;99.90
36416;DHT22;22447;44.530;18.620;2024-02-21T09:08:32;11.10;99.90
36416;DHT22;22447;44.530;18.620;2024-02-21T09:10:58;11.10;99.90
36416;DHT22;22447;44.530;18.620;2024-02-21T09:13:23;11.10;99.90
36416;DHT22;22447;44.530;18.620;2024-02-21T09:15:49;10.80;99.90
36416;DHT22;22447;44.530;18.620;2024-02-21T09:18:16;10.80;99.90
36416;DHT22;22447;44.530;18.620;2024-02-21T09:20:42;10.80;99.90
36416;DHT22;22447;44.530;18.620;2024-02-21T09:23:08;10.70;99.90
36416;DHT22;22447;44.530;18.620;2024-02-21T09:25:34;10.90;99.90
36416;DHT22;22447;44.530;18.620;2024-02-21T09:28:01;11.10;99.90
36416;DHT22;22447;44.530;18.620;2024-02-21T09:30:27;11.40;99.90
36416;DHT22;22447;44.530;18.620;2024-02-21T09:32:53;11.50;99.30
36416;DHT22;22447;44.530;18.620;2024-02-21T09:35:19;11.70;98.70
36416;DHT22;22447;44.530;18.620;2024-02-21T09:37:48;11.80;98.20
36416;DHT22;22447;44.530;18.620;2024-02-21T09:40:15;11.80;98.80
36416;DHT22;22447;44.530;18.620;2024-02-21T09:42:43;12.20;96.60
36416;DHT22;22447;44.530;18.620;2024-02-21T09:45:20;12.40;94.90
36416;DHT22;22447;44.530;18.620;2024-02-21T09:50:50;12.60;95.80
36416;DHT22;22447;44.530;18.620;2024-02-21T09:53:18;12.70;94.00
36416;DHT22;22447;44.530;18.620;2024-02-21T09:55:45;12.40;93.70
36416;DHT22;22447;44.530;18.620;2024-02-21T09:58:12;12.50;94.60
36416;DHT22;22447;44.530;18.620;2024-02-21T10:00:38;12.40;93.20
36416;DHT22;22447;44.530;18.620;2024-02-21T10:03:04;12.40;93.10
36416;DHT22;22447;44.530;18.620;2024-02-21T10:05:34;12.20;92.80
36416;DHT22;22447;44.530;18.620;2024-02-21T10:08:01;12.20;92.70
36416;DHT22;22447;44.530;18.620;2024-02-21T10:10:27;12.10;93.50
36416;DHT22;22447;44.530;18.620;2024-02-21T10:12:55;12.10;92.50
36416;DHT22;22447;44.530;18.620;2024-02-21T10:15:23;12.20;92.30
36416;DHT22;22447;44.530;18.620;2024-02-21T10:17:57;12.50;91.40
36416;DHT22;22447;44.530;18.620;2024-02-21T10:20:23;12.50;91.80
36416;DHT22;22447;44.530;18.620;2024-02-21T10:22:59;12.50;91.80
36416;DHT22;22447;44.530;18.620;2024-02-21T10:25:25;12.50;91.80
36416;DHT22;22447;44.530;18.620;2024-02-21T10:27:51;12.60;92.20
36416;DHT22;22447;44.530;18.620;2024-02-21T10:30:17;12.90;90.30
36416;DHT22;22447;44.530;18.620;2024-02-21T10:32:50;13.10;91.90
36416;DHT22;22447;44.530;18.620;2024-02-21T10:35:26;13.20;90.10
36416;DHT22;22447;44.530;18.620;2024-02-21T10:37:53;13.10;90.00
36416;DHT22;22447;44.530;18.620;2024-02-21T10:40:26;13.30;90.50
36416;DHT22;22447;44.530;18.620;2024-02-21T10:43:01;13.30;87.90
36416;DHT22;22447;44.530;18.620;2024-02-21T10:45:34;13.20;87.10
36416;DHT22;22447;44.530;18.620;2024-02-21T10:48:22;13.40;88.60
36416;DHT22;22447;44.530;18.620;2024-02-21T10:51:03;13.40;88.20
36416;DHT22;22447;44.530;18.620;2024-02-21T10:54:02;13.40;86.00
36416;DHT22;22447;44.530;18.620;2024-02-21T10:56:32;13.30;86.60
36416;DHT22;22447;44.530;18.620;2024-02-21T10:59:03;13.50;86.20
36416;DHT22;22447;44.530;18.620;2024-02-21T11:01:30;13.80;85.00
36416;DHT22;22447;44.530;18.620;2024-02-21T11:04:08;13.90;82.90
36416;DHT22;22447;44.530;18.620;2024-02-21T11:06:38;14.10;81.70
36416;DHT22;22447;44.530;18.620;2024-02-21T11:09:10;14.30;81.40
36416;DHT22;22447;44.530;18.620;2024-02-21T11:11:41;14.20;77.70
36416;DHT22;22447;44.530;18.620;2024-02-21T11:16:39;14.50;76.30
36416;DHT22;22447;44.530;18.620;2024-02-21T11:19:19;14.90;76.70
36416;DHT22;22447;44.530;18.620;2024-02-21T11:21:45;15.30;70.70
36416;DHT22;22447;44.530;18.620;2024-02-21T11:24:11;16.10;70.10
36416;DHT22;22447;44.530;18.620;2024-02-21T11:26:37;17.10;69.40
36416;DHT22;22447;44.530;18.620;2024-02-21T11:29:03;17.20;65.90
36416;DHT22;22447;44.530;18.620;2024-02-21T11:31:44;17.40;62.80
36416;DHT22;22447;44.530;18.620;2024-02-21T11:34:12;16.50;59.50
36416;DHT22;22447;44.530;18.620;2024-02-21T11:36:51;15.60;61.40
36416;DHT22;22447;44.530;18.620;2024-02-21T11:39:25;15.10;60.50
36416;DHT22;22447;44.530;18.620;2024-02-21T11:42:07;14.90;60.10
36416;DHT22;22447;44.530;18.620;2024-02-21T11:44:37;14.40;61.50
36416;DHT22;22447;44.530;18.620;2024-02-21T11:47:04;14.30;61.70
36416;DHT22;22447;44.530;18.620;2024-02-21T11:49:30;14.80;63.20
36416;DHT22;22447;44.530;18.620;2024-02-21T11:52:03;15.60;57.50
36416;DHT22;22447;44.530;18.620;2024-02-21T11:54:33;16.20;57.80
36416;DHT22;22447;44.530;18.620;2024-02-21T11:56:59;17.20;56.20
36416;DHT22;22447;44.530;18.620;2024-02-21T11:59:26;17.90;57.60
36416;DHT22;22447;44.530;18.620;2024-02-21T12:01:53;17.90;53.50
36416;DHT22;22447;44.530;18.620;2024-02-21T12:04:20;17.50;52.30
36416;DHT22;22447;44.530;18.620;2024-02-21T12:06:46;18.20;52.20
36416;DHT22;22447;44.530;18.620;2024-02-21T12:09:15;18.10;49.60
36416;DHT22;22447;44.530;18.620;2024-02-21T12:11:45;18.20;50.50
36416;DHT22;22447;44.530;18.620;2024-02-21T12:14:16;18.30;50.00
36416;DHT22;22447;44.530;18.620;2024-02-21T12:16:42;18.30;49.30
36416;DHT22;22447;44.530;18.620;2024-02-21T12:19:10;18.00;47.60
36416;DHT22;22447;44.530;18.620;2024-02-21T12:21:35;18.80;48.20
36416;DHT22;22447;44.530;18.620;2024-02-21T12:24:26;19.30;43.90
36416;DHT22;22447;44.530;18.620;2024-02-21T12:26:53;20.30;44.50
36416;DHT22;22447;44.530;18.620;2024-02-21T12:29:20;20.40;40.40
36416;DHT22;22447;44.530;18.620;2024-02-21T12:31:47;19.60;40.00
36416;DHT22;22447;44.530;18.620;2024-02-21T12:34:13;19.80;36.20
36416;DHT22;22447;44.530;18.620;2024-02-21T12:36:43;18.80;36.60
36416;DHT22;22447;44.530;18.620;2024-02-21T12:39:10;17.90;37.60
36416;DHT22;22447;44.530;18.620;2024-02-21T12:41:36;17.70;38.00
36416;DHT22;22447;44.530;18.620;2024-02-21T12:44:07;17.40;39.30
36416;DHT22;22447;44.530;18.620;2024-02-21T12:46:33;17.00;39.80
36416;DHT22;22447;44.530;18.620;2024-02-21T12:49:03;16.90;39.60
36416;DHT22;22447;44.530;18.620;2024-02-21T12:51:30;16.30;42.60
36416;DHT22;22447;44.530;18.620;2024-02-21T12:53:56;16.10;41.60
36416;DHT22;22447;44.530;18.620;2024-02-21T12:56:22;15.70;42.00
36416;DHT22;22447;44.530;18.620;2024-02-21T12:58:49;15.20;44.10
36416;DHT22;22447;44.530;18.620;2024-02-21T13:01:14;15.00;47.20
36416;DHT22;22447;44.530;18.620;2024-02-21T13:03:41;14.90;46.80
36416;DHT22;22447;44.530;18.620;2024-02-21T13:06:07;14.70;47.00
36416;DHT22;22447;44.530;18.620;2024-02-21T13:08:39;14.70;46.70
36416;DHT22;22447;44.530;18.620;2024-02-21T13:11:05;14.70;48.60
36416;DHT22;22447;44.530;18.620;2024-02-21T13:13:32;14.80;47.30
36416;DHT22;22447;44.530;18.620;2024-02-21T13:15:58;15.10;48.00
36416;DHT22;22447;44.530;18.620;2024-02-21T13:18:24;15.00;46.60
36416;DHT22;22447;44.530;18.620;2024-02-21T13:20:50;15.40;47.60
36416;DHT22;22447;44.530;18.620;2024-02-21T13:23:16;15.70;45.80
36416;DHT22;22447;44.530;18.620;2024-02-21T13:25:42;16.70;46.20
36416;DHT22;22447;44.530;18.620;2024-02-21T13:28:07;17.30;45.80
36416;DHT22;22447;44.530;18.620;2024-02-21T13:30:35;17.80;41.10
36416;DHT22;22447;44.530;18.620;2024-02-21T13:33:01;18.50;41.80
36416;DHT22;22447;44.530;18.620;2024-02-21T13:35:29;19.10;39.60
36416;DHT22;22447;44.530;18.620;2024-02-21T13:37:54;18.80;38.00
36416;DHT22;22447;44.530;18.620;2024-02-21T13:40:20;18.10;40.30
36416;DHT22;22447;44.530;18.620;2024-02-21T13:42:46;17.50;41.00
36416;DHT22;22447;44.530;18.620;2024-02-21T13:45:12;16.80;41.10
36416;DHT22;22447;44.530;18.620;2024-02-21T13:47:38;16.20;42.90
36416;DHT22;22447;44.530;18.620;2024-02-21T13:50:07;15.90;44.10
36416;DHT22;22447;44.530;18.620;2024-02-21T13:52:37;15.80;44.90
36416;DHT22;22447;44.530;18.620;2024-02-21T13:55:03;15.40;46.10
36416;DHT22;22447;44.530;18.620;2024-02-21T13:57:29;15.30;46.70
36416;DHT22;22447;44.530;18.620;2024-02-21T13:59:55;15.30;47.40
36416;DHT22;22447;44.530;18.620;2024-02-21T14:02:21;15.50;46.00
36416;DHT22;22447;44.530;18.620;2024-02-21T14:04:47;16.00;46.20
36416;DHT22;22447;44.530;18.620;2024-02-21T14:07:13;16.00;44.80
36416;DHT22;22447;44.530;18.620;2024-02-21T14:09:39;16.20;45.30
36416;DHT22;22447;44.530;18.620;2024-02-21T14:12:05;16.50;45.60
36416;DHT22;22447;44.530;18.620;2024-02-21T14:14:34;16.50;44.80
36416;DHT22;22447;44.530;18.620;2024-02-21T14:17:01;16.20;45.10
36416;DHT22;22447;44.530;18.620;2024-02-21T14:19:27;15.90;45.10
36416;DHT22;22447;44.530;18.620;2024-02-21T14:21:53;15.50;46.20
36416;DHT22;22447;44.530;18.620;2024-02-21T14:24:19;15.20;46.30
36416;DHT22;22447;44.530;18.620;2024-02-21T14:26:44;14.70;48.60
36416;DHT22;22447;44.530;18.620;2024-02-21T14:29:10;14.50;48.20
36416;DHT22;22447;44.530;18.620;2024-02-21T14:31:36;14.50;48.40
36416;DHT22;22447;44.530;18.620;2024-02-21T14:34:02;14.40;48.50
36416;DHT22;22447;44.530;18.620;2024-02-21T14:36:28;14.00;50.10
36416;DHT22;22447;44.530;18.620;2024-02-21T14:38:54;14.20;52.30
36416;DHT22;22447;44.530;18.620;2024-02-21T14:41:20;14.00;50.50
36416;DHT22;22447;44.530;18.620;2024-02-21T14:43:46;13.90;52.20
36416;DHT22;22447;44.530;18.620;2024-02-21T14:46:12;13.80;50.60
36416;DHT22;22447;44.530;18.620;2024-02-21T14:48:38;14.00;51.40
36416;DHT22;22447;44.530;18.620;2024-02-21T14:51:04;14.20;50.30
36416;DHT22;22447;44.530;18.620;2024-02-21T14:53:30;14.10;49.90
36416;DHT22;22447;44.530;18.620;2024-02-21T14:55:58;13.90;49.20
36416;DHT22;22447;44.530;18.620;2024-02-21T14:58:24;14.00;49.60
36416;DHT22;22447;44.530;18.620;2024-02-21T15:00:50;14.00;50.70
36416;DHT22;22447;44.530;18.620;2024-02-21T15:03:16;13.90;50.00
36416;DHT22;22447;44.530;18.620;2024-02-21T15:05:46;14.10;49.90
36416;DHT22;22447;44.530;18.620;2024-02-21T15:08:12;14.00;48.40
36416;DHT22;22447;44.530;18.620;2024-02-21T15:10:43;14.00;48.80
36416;DHT22;22447;44.530;18.620;2024-02-21T15:13:08;14.10;49.20
36416;DHT22;22447;44.530;18.620;2024-02-21T15:15:34;14.10;48.90
36416;DHT22;22447;44.530;18.620;2024-02-21T15:18:00;14.10;49.20
36416;DHT22;22447;44.530;18.620;2024-02-21T15:20:26;13.60;48.50
36416;DHT22;22447;44.530;18.620;2024-02-21T15:22:53;13.80;49.60
36416;DHT22;22447;44.530;18.620;2024-02-21T15:25:20;13.70;48.20
36416;DHT22;22447;44.530;18.620;2024-02-21T15:27:46;13.80;49.00
36416;DHT22;22447;44.530;18.620;2024-02-21T15:30:12;14.00;49.00
36416;DHT22;22447;44.530;18.620;2024-02-21T15:32:39;13.80;49.20
36416;DHT22;22447;44.530;18.620;2024-02-21T15:35:08;13.80;48.80